Hauptseite
METAR-TAF:

METAR-TAF

Flughäfen :

Mécheria, Algerien

Breite: 34-56N, Länge: 000-26W, Höhe: 1149 m

Beobachtung

Neuester Wetterbericht von vor 37 Minuten, um 07:00 UTC
Wind 8 kt aus Südwest
Temperatur 3°C
Luftfeuchtigkeit 75%
Luftdruck 1024 hPa
Sichtweite 10 km oder mehr
keine Wolken unter 1500 m und keine Kumulonimbus oder Gewitterwolken

METAR: DAAY 240700Z 23008KT CAVOK 03/M01 Q1024

Zeit: 08:37 (07:37 UTC)

Prognose

Neuester Wetterbericht von vor 14 Stunden und 37 Minuten, um 17:00 UTC
Gültige Prognose vom 23 um 18 UTC bis 24 um 03 UTC
Wind 15 kt aus Süd/Südwest
Sichtweite 10 km oder mehr
Aufgelockert bewölkt in der Höhe von 3300 ft
Übergehend zu
vom 23 um 20 UTC bis 23 um 22 UTC
Wind 5 kt aus Süd

TAF: DAAY 231700Z 2318/2403 20015KT 9999 SCT033 BECMG 2320/2322 18005KT

Wetterbeobachtungen und Prognosen von mehr als 4000 Flughäfen (METAR und TAF Bericht).

Die verfügbaren Stationen werden durch gelbe und rote Markierungen auf der Karte dargestellt.

Führen Sie die Maus auf sie, um den Namen der Station zu sehen.

Darauf klicken, um die Beobachtung von Wetterbeobachtungen und Prognosen zu sehen.

Um die Karte zu ändern : klicken Sie auf den grünen Tasten mit einem schwarzen Kreuz Zum Vergrößern, auf den grünen Button mit einem Gedankenstrich zu verkleinern, oder auf die grünen Pfeile für benachbarte Karten.


METAR-TAF: